createdAt,value
2023-05-03T00:00:36.717Z,19.45
2023-05-03T00:03:06.856Z,18.20
2023-05-03T00:05:37.708Z,17.88
2023-05-03T00:08:05.385Z,16.73
2023-05-03T00:10:32.457Z,16.17
2023-05-03T00:12:59.488Z,16.60
2023-05-03T00:15:26.778Z,16.05
2023-05-03T00:17:54.015Z,15.68
2023-05-03T00:20:22.438Z,16.10
2023-05-03T00:22:49.861Z,14.80
2023-05-03T00:25:17.008Z,14.85
2023-05-03T00:27:44.130Z,14.90
2023-05-03T00:30:11.892Z,15.02
2023-05-03T00:32:39.086Z,15.07
2023-05-03T00:35:06.920Z,14.43
2023-05-03T00:37:34.211Z,15.40
2023-05-03T00:40:01.402Z,14.63
2023-05-03T00:42:29.204Z,15.30
2023-05-03T00:44:56.434Z,15.38
2023-05-03T00:47:23.805Z,15.65
2023-05-03T00:49:51.390Z,16.30
2023-05-03T00:52:18.575Z,15.07
2023-05-03T00:54:45.981Z,16.10
2023-05-03T00:57:13.346Z,15.30
2023-05-03T00:59:40.706Z,14.85
2023-05-03T01:02:08.909Z,14.95
2023-05-03T01:04:37.280Z,13.95
2023-05-03T01:07:31.164Z,15.05
2023-05-03T01:10:38.995Z,15.43
2023-05-03T01:13:56.293Z,13.15
2023-05-03T01:16:40.861Z,13.40
2023-05-03T01:19:44.394Z,13.75
2023-05-03T01:22:38.510Z,14.63
2023-05-03T01:25:11.708Z,12.75
2023-05-03T01:27:40.560Z,14.13
2023-05-03T01:30:12.850Z,13.27
2023-05-03T01:33:16.941Z,13.65
2023-05-03T01:36:12.921Z,12.82
2023-05-03T01:38:40.392Z,13.98
2023-05-03T01:41:13.607Z,13.38
2023-05-03T01:43:42.029Z,16.02
2023-05-03T01:46:09.449Z,16.55
2023-05-03T01:48:36.591Z,15.77
2023-05-03T01:51:03.735Z,18.08
2023-05-03T01:53:30.833Z,17.17
2023-05-03T01:55:57.890Z,18.45
2023-05-03T01:58:24.922Z,18.20
2023-05-03T02:00:52.029Z,17.67
2023-05-03T02:03:19.251Z,18.42
2023-05-03T02:05:46.402Z,18.70
2023-05-03T02:08:13.462Z,18.20
2023-05-03T02:10:43.522Z,17.85
2023-05-03T02:13:10.614Z,17.00
2023-05-03T02:15:37.675Z,16.23
2023-05-03T02:18:05.602Z,17.00
2023-05-03T02:20:36.584Z,15.95
2023-05-03T02:23:04.640Z,16.02
2023-05-03T02:25:32.117Z,15.52
2023-05-03T02:27:59.315Z,15.68
2023-05-03T02:30:26.457Z,15.75
2023-05-03T02:32:53.651Z,16.50
2023-05-03T02:35:20.798Z,16.60
2023-05-03T02:37:48.209Z,16.67
2023-05-03T02:40:15.631Z,17.42
2023-05-03T02:42:42.696Z,15.63
2023-05-03T02:45:10.697Z,16.02
2023-05-03T02:47:38.136Z,14.85
2023-05-03T02:50:06.778Z,16.20
2023-05-03T02:52:33.895Z,15.88
2023-05-03T02:55:01.211Z,14.18
2023-05-03T02:57:28.312Z,14.88
2023-05-03T02:59:55.640Z,13.60
2023-05-03T03:02:22.804Z,14.07
2023-05-03T03:04:49.910Z,14.10
2023-05-03T03:07:16.997Z,14.18
2023-05-03T03:09:44.064Z,14.18
2023-05-03T03:12:11.180Z,14.05
2023-05-03T03:14:38.290Z,13.50
2023-05-03T03:17:09.058Z,13.63
2023-05-03T03:19:36.356Z,13.10
2023-05-03T03:22:03.482Z,14.65
2023-05-03T03:24:30.514Z,13.85
2023-05-03T03:26:58.209Z,13.93
2023-05-03T03:29:25.461Z,13.32
2023-05-03T03:31:52.762Z,12.57
2023-05-03T03:34:20.032Z,13.18
2023-05-03T03:36:47.155Z,11.90
2023-05-03T03:39:14.273Z,12.40
2023-05-03T03:41:41.558Z,12.40
2023-05-03T03:44:08.999Z,13.45
2023-05-03T03:46:36.203Z,11.55
2023-05-03T03:49:03.475Z,12.38
2023-05-03T03:51:31.241Z,11.93
2023-05-03T03:53:58.414Z,12.88
2023-05-03T03:56:25.551Z,12.82
2023-05-03T03:58:52.718Z,12.70
2023-05-03T04:01:19.797Z,12.35
2023-05-03T04:03:47.738Z,12.90
2023-05-03T04:06:15.044Z,14.15
2023-05-03T04:08:42.123Z,12.77
2023-05-03T04:11:12.868Z,12.88
2023-05-03T04:13:40.050Z,13.57
2023-05-03T04:16:07.958Z,14.10
2023-05-03T04:18:35.422Z,15.35
2023-05-03T04:21:02.652Z,14.88
2023-05-03T04:23:31.969Z,14.88
2023-05-03T04:25:59.112Z,15.88
2023-05-03T04:28:27.054Z,15.82
2023-05-03T04:30:54.415Z,16.48
2023-05-03T04:33:22.143Z,16.88
2023-05-03T04:35:52.988Z,14.70
2023-05-03T04:38:20.592Z,16.50
2023-05-03T04:40:47.682Z,14.20
2023-05-03T04:43:14.863Z,14.77
2023-05-03T04:45:42.248Z,14.55
2023-05-03T04:48:09.981Z,14.68
2023-05-03T04:50:37.173Z,15.32
2023-05-03T04:53:04.499Z,14.07
2023-05-03T04:55:31.560Z,13.32
2023-05-03T04:57:58.681Z,13.50
2023-05-03T05:00:25.834Z,13.48
2023-05-03T05:02:52.938Z,12.50
2023-05-03T05:05:20.628Z,12.95
2023-05-03T05:07:47.790Z,12.80
2023-05-03T05:10:15.047Z,13.60
2023-05-03T05:12:42.948Z,13.80
2023-05-03T05:15:10.985Z,11.80
2023-05-03T05:17:38.266Z,12.27
2023-05-03T05:20:07.959Z,13.35
2023-05-03T05:22:35.215Z,12.63
2023-05-03T05:25:02.348Z,13.55
2023-05-03T05:27:29.455Z,12.90
2023-05-03T05:29:56.675Z,13.25
2023-05-03T05:32:23.953Z,12.77
2023-05-03T05:34:55.540Z,13.82
2023-05-03T05:37:23.716Z,13.50
2023-05-03T05:39:51.011Z,14.05
2023-05-03T05:42:18.064Z,14.55
2023-05-03T05:44:45.183Z,14.40
2023-05-03T05:47:12.376Z,14.70
2023-05-03T05:49:40.185Z,13.18
2023-05-03T05:52:07.796Z,15.27
2023-05-03T05:54:34.924Z,14.23
2023-05-03T05:57:02.643Z,13.63
2023-05-03T05:59:31.440Z,13.60
2023-05-03T06:02:00.282Z,14.32
2023-05-03T06:04:27.513Z,13.52
2023-05-03T06:06:54.745Z,13.63
2023-05-03T06:09:24.564Z,14.27
2023-05-03T06:11:52.107Z,14.05
2023-05-03T06:14:20.687Z,14.63
2023-05-03T06:16:47.961Z,13.55
2023-05-03T06:19:15.043Z,14.85
2023-05-03T06:21:42.133Z,12.85
2023-05-03T06:24:09.262Z,13.30
2023-05-03T06:26:36.489Z,12.90
2023-05-03T06:29:04.138Z,13.00
2023-05-03T06:31:31.486Z,12.48
2023-05-03T06:33:58.739Z,11.13
2023-05-03T06:36:25.796Z,12.32
2023-05-03T06:38:52.905Z,11.80
2023-05-03T06:41:19.984Z,13.02
2023-05-03T06:43:47.345Z,12.95
2023-05-03T06:46:14.439Z,12.70
2023-05-03T06:48:41.573Z,11.75
2023-05-03T06:51:08.755Z,12.30
2023-05-03T06:53:36.155Z,12.98
2023-05-03T06:56:03.822Z,11.68
2023-05-03T06:58:31.167Z,11.63
2023-05-03T07:00:58.379Z,11.63
2023-05-03T07:03:25.523Z,12.00
2023-05-03T07:05:52.706Z,11.10
2023-05-03T07:08:20.087Z,11.27
2023-05-03T07:10:47.252Z,11.05
2023-05-03T07:13:14.360Z,12.00
2023-05-03T07:15:41.556Z,11.68
2023-05-03T07:18:09.060Z,11.25
2023-05-03T07:20:36.443Z,10.70
2023-05-03T07:23:03.628Z,10.52
2023-05-03T07:25:31.694Z,10.63
2023-05-03T07:27:59.282Z,10.15
2023-05-03T07:30:27.015Z,10.40
2023-05-03T07:32:54.396Z,10.30
2023-05-03T07:35:23.200Z,11.00
2023-05-03T07:37:50.389Z,11.30
2023-05-03T07:40:17.742Z,10.98
2023-05-03T07:42:45.027Z,11.95
2023-05-03T07:45:12.399Z,11.07
2023-05-03T07:47:40.225Z,11.55
2023-05-03T07:50:08.311Z,11.18
2023-05-03T07:52:40.054Z,11.48
2023-05-03T07:55:08.066Z,11.88
2023-05-03T07:57:36.316Z,10.80
2023-05-03T08:00:06.181Z,10.63
2023-05-03T08:02:33.495Z,11.68
2023-05-03T08:05:00.838Z,10.80
2023-05-03T08:07:28.819Z,11.43
2023-05-03T08:09:58.548Z,11.10
2023-05-03T08:12:28.604Z,10.30
2023-05-03T08:14:56.510Z,11.07
2023-05-03T08:17:24.103Z,11.27
2023-05-03T08:19:51.964Z,10.73
2023-05-03T08:22:19.025Z,11.20
2023-05-03T08:24:46.458Z,11.38
2023-05-03T08:27:13.505Z,12.07
2023-05-03T08:29:40.853Z,10.98
2023-05-03T08:32:07.959Z,11.23
2023-05-03T08:34:35.039Z,10.98
2023-05-03T08:37:04.396Z,11.38
2023-05-03T08:39:32.564Z,11.23
2023-05-03T08:42:00.402Z,12.13
2023-05-03T08:44:29.748Z,11.48
2023-05-03T08:46:56.898Z,10.15
2023-05-03T08:49:25.525Z,10.13
2023-05-03T08:51:53.299Z,10.50
2023-05-03T08:54:22.112Z,10.68
2023-05-03T08:56:49.626Z,10.68
2023-05-03T08:59:17.553Z,10.10
2023-05-03T09:01:45.846Z,8.80
2023-05-03T09:04:13.135Z,10.10
2023-05-03T09:06:40.657Z,10.02
2023-05-03T09:09:08.804Z,10.27
2023-05-03T09:11:38.809Z,9.98
2023-05-03T09:14:19.727Z,8.30
2023-05-03T09:16:47.503Z,9.10
2023-05-03T09:19:16.505Z,9.65
2023-05-03T09:21:47.199Z,8.65
2023-05-03T09:24:22.176Z,9.00
2023-05-03T09:26:53.768Z,8.85
2023-05-03T09:29:34.218Z,7.10
2023-05-03T09:32:05.698Z,7.43
2023-05-03T09:34:34.844Z,6.63
2023-05-03T09:37:02.312Z,6.22
2023-05-03T09:39:29.607Z,7.82
2023-05-03T09:41:56.912Z,6.93
2023-05-03T09:44:53.964Z,7.00
2023-05-03T09:47:24.815Z,7.20
2023-05-03T09:49:52.009Z,7.97
2023-05-03T09:52:22.353Z,7.07
2023-05-03T09:54:52.757Z,7.13
2023-05-03T09:57:20.325Z,6.50
2023-05-03T09:59:48.738Z,6.18
2023-05-03T10:02:16.748Z,7.13
2023-05-03T10:04:53.843Z,7.00
2023-05-03T10:07:23.288Z,5.95
2023-05-03T10:09:50.689Z,6.18
2023-05-03T10:12:19.218Z,6.60
2023-05-03T10:14:48.647Z,6.22
2023-05-03T10:17:46.444Z,5.85
2023-05-03T10:20:45.746Z,6.72
2023-05-03T10:23:14.207Z,5.30
2023-05-03T10:26:07.415Z,6.70
2023-05-03T10:28:34.731Z,6.97
2023-05-03T10:31:03.225Z,6.65
2023-05-03T10:33:31.466Z,6.30
2023-05-03T10:36:01.431Z,7.05
2023-05-03T10:38:29.676Z,6.85
2023-05-03T10:40:57.438Z,6.75
2023-05-03T10:43:30.673Z,6.88
2023-05-03T10:46:29.354Z,6.68
2023-05-03T10:49:19.792Z,6.90
2023-05-03T10:51:47.175Z,6.88
2023-05-03T10:54:14.451Z,6.85
2023-05-03T10:56:50.043Z,6.60
2023-05-03T11:01:51.391Z,6.93
2023-05-03T11:04:41.590Z,6.20
2023-05-03T11:07:10.206Z,5.80
2023-05-03T11:09:37.613Z,6.15
2023-05-03T11:12:07.032Z,5.28
2023-05-03T11:14:34.518Z,4.70
2023-05-03T11:17:02.000Z,5.97
2023-05-03T11:19:29.763Z,5.60
2023-05-03T11:21:58.111Z,5.72
2023-05-03T11:24:25.379Z,5.82
2023-05-03T11:26:52.518Z,5.57
2023-05-03T11:29:21.069Z,5.65
2023-05-03T11:31:48.427Z,5.65
2023-05-03T11:34:16.374Z,6.15
2023-05-03T11:36:43.724Z,5.78
2023-05-03T11:39:15.994Z,5.15
2023-05-03T11:41:43.590Z,6.00
2023-05-03T11:44:17.072Z,5.72
2023-05-03T11:46:46.409Z,6.10
2023-05-03T11:49:18.922Z,5.68
2023-05-03T11:51:49.104Z,6.20
2023-05-03T11:54:25.262Z,6.32
2023-05-03T11:57:00.181Z,5.68
2023-05-03T11:59:40.796Z,6.38
2023-05-03T12:02:11.834Z,5.38
2023-05-03T12:04:41.509Z,5.35
2023-05-03T12:07:12.622Z,5.85
2023-05-03T12:09:42.033Z,5.88
2023-05-03T12:12:19.554Z,5.55
2023-05-03T12:15:03.507Z,5.63
2023-05-03T12:17:43.789Z,4.95
2023-05-03T12:23:04.471Z,5.10
2023-05-03T12:25:34.349Z,5.05
2023-05-03T12:30:35.027Z,5.30
2023-05-03T12:33:04.880Z,5.72
2023-05-03T12:35:34.104Z,5.05
2023-05-03T12:38:03.435Z,4.80
2023-05-03T12:40:34.063Z,4.60
2023-05-03T12:43:01.814Z,4.65
2023-05-03T12:45:33.826Z,4.78
2023-05-03T12:48:03.076Z,4.93
2023-05-03T12:50:31.979Z,5.03
2023-05-03T12:53:02.710Z,4.38
2023-05-03T12:55:35.751Z,4.00
2023-05-03T12:58:36.983Z,4.65
2023-05-03T13:05:52.780Z,4.28
2023-05-03T13:08:21.629Z,3.85
2023-05-03T13:10:49.445Z,3.58
2023-05-03T13:13:17.240Z,4.15
2023-05-03T13:15:44.392Z,4.15
2023-05-03T13:18:11.566Z,4.20
2023-05-03T13:20:39.074Z,4.88
2023-05-03T13:23:06.219Z,4.65
2023-05-03T13:25:33.387Z,4.35
2023-05-03T13:28:02.011Z,4.43
2023-05-03T13:30:29.315Z,4.60
2023-05-03T13:32:56.482Z,5.20
2023-05-03T13:35:23.720Z,4.32
2023-05-03T13:37:52.194Z,3.97
2023-05-03T13:40:19.301Z,4.93
2023-05-03T13:42:49.022Z,4.90
2023-05-03T13:45:18.329Z,4.40
2023-05-03T13:50:16.223Z,4.43
2023-05-03T13:52:44.775Z,3.70
2023-05-03T13:55:12.341Z,3.95
2023-05-03T13:57:39.468Z,4.25
2023-05-03T14:00:08.818Z,4.72
2023-05-03T14:02:36.388Z,3.65
2023-05-03T14:05:03.832Z,3.95
2023-05-03T14:07:32.749Z,3.75
2023-05-03T14:09:59.912Z,3.50
2023-05-03T14:12:27.313Z,4.53
2023-05-03T14:14:54.739Z,4.05
2023-05-03T14:17:21.884Z,4.53
2023-05-03T14:19:49.489Z,4.15
2023-05-03T14:22:16.547Z,4.25
2023-05-03T14:24:44.334Z,4.38
2023-05-03T14:27:12.925Z,4.80
2023-05-03T14:29:40.324Z,4.43
2023-05-03T14:32:07.499Z,4.82
2023-05-03T14:34:34.633Z,4.80
2023-05-03T14:37:01.901Z,5.90
2023-05-03T14:39:29.303Z,4.47
2023-05-03T14:41:56.713Z,4.82
2023-05-03T14:44:23.881Z,4.65
2023-05-03T14:46:53.180Z,5.30
2023-05-03T14:49:20.480Z,4.90
2023-05-03T14:51:47.583Z,5.35
2023-05-03T14:54:14.646Z,4.70
2023-05-03T14:56:41.746Z,5.82
2023-05-03T14:59:09.239Z,6.47
2023-05-03T15:01:39.306Z,5.35
2023-05-03T15:04:10.630Z,5.05
2023-05-03T15:06:39.587Z,4.35
2023-05-03T15:09:08.543Z,4.70
2023-05-03T15:11:39.921Z,4.70
2023-05-03T15:14:07.285Z,5.50
2023-05-03T15:16:37.110Z,4.03
2023-05-03T15:19:04.552Z,4.90
2023-05-03T15:21:31.739Z,4.88
2023-05-03T15:23:58.810Z,4.55
2023-05-03T15:26:25.917Z,4.85
2023-05-03T15:28:53.077Z,5.13
2023-05-03T15:31:20.406Z,4.22
2023-05-03T15:33:47.492Z,4.78
2023-05-03T15:36:16.641Z,4.47
2023-05-03T15:38:44.168Z,4.85
2023-05-03T15:41:11.544Z,4.38
2023-05-03T15:43:38.726Z,5.00
2023-05-03T15:46:06.487Z,4.60
2023-05-03T15:48:33.709Z,5.40
2023-05-03T15:51:00.813Z,4.85
2023-05-03T15:53:28.182Z,4.88
2023-05-03T15:55:58.882Z,4.53
2023-05-03T15:58:30.534Z,5.43
2023-05-03T16:00:59.350Z,4.80
2023-05-03T16:03:27.200Z,5.00
2023-05-03T16:05:56.440Z,4.68
2023-05-03T16:08:23.648Z,4.85
2023-05-03T16:10:51.434Z,4.88
2023-05-03T16:13:18.699Z,4.93
2023-05-03T16:15:46.293Z,5.03
2023-05-03T16:18:13.604Z,4.88
2023-05-03T16:20:41.352Z,4.75
2023-05-03T16:23:09.142Z,5.82
2023-05-03T16:25:36.263Z,5.60
2023-05-03T16:28:03.414Z,5.53
2023-05-03T16:30:30.712Z,5.90
2023-05-03T16:32:57.794Z,6.20
2023-05-03T16:35:24.998Z,5.20
2023-05-03T16:37:53.050Z,4.78
2023-05-03T16:40:20.145Z,4.88
2023-05-03T16:42:50.785Z,5.20
2023-05-03T16:45:19.731Z,5.60
2023-05-03T16:47:47.710Z,5.18
2023-05-03T16:50:17.332Z,4.57
2023-05-03T16:52:44.912Z,4.45
2023-05-03T16:55:13.314Z,4.38
2023-05-03T16:57:40.659Z,4.60
2023-05-03T17:00:09.764Z,4.63
2023-05-03T17:02:38.965Z,4.70
2023-05-03T17:05:12.727Z,4.70
2023-05-03T17:07:41.811Z,4.47
2023-05-03T17:10:09.721Z,4.72
2023-05-03T17:12:37.162Z,5.18
2023-05-03T17:15:05.112Z,5.07
2023-05-03T17:17:32.805Z,4.60
2023-05-03T17:19:59.997Z,5.18
2023-05-03T17:22:28.039Z,4.05
2023-05-03T17:24:57.997Z,4.25
2023-05-03T17:27:26.504Z,4.55
2023-05-03T17:29:57.508Z,4.20
2023-05-03T17:32:24.730Z,4.80
2023-05-03T17:34:51.827Z,4.05
2023-05-03T17:37:19.005Z,4.82
2023-05-03T17:39:46.356Z,4.18
2023-05-03T17:42:13.443Z,5.05
2023-05-03T17:44:41.033Z,4.60
2023-05-03T17:47:08.119Z,4.47
2023-05-03T17:49:35.522Z,4.97
2023-05-03T17:52:04.247Z,4.90
2023-05-03T17:54:31.385Z,5.00
2023-05-03T17:56:58.876Z,5.13
2023-05-03T17:59:26.349Z,5.10
2023-05-03T18:01:53.742Z,5.55
2023-05-03T18:04:21.163Z,5.57
2023-05-03T18:06:48.763Z,5.75
2023-05-03T18:09:16.856Z,5.78
2023-05-03T18:11:45.150Z,5.80
2023-05-03T18:14:12.630Z,5.00
2023-05-03T18:16:40.446Z,5.88
2023-05-03T18:19:08.146Z,5.28
2023-05-03T18:21:35.598Z,5.43
2023-05-03T18:24:03.853Z,6.05
2023-05-03T18:26:33.834Z,5.50
2023-05-03T18:29:01.263Z,6.45
2023-05-03T18:31:29.115Z,6.05
2023-05-03T18:34:00.532Z,6.63
2023-05-03T18:36:28.856Z,5.80
2023-05-03T18:38:57.410Z,6.40
2023-05-03T18:41:25.326Z,6.55
2023-05-03T18:43:54.696Z,6.13
2023-05-03T18:46:22.608Z,7.20
2023-05-03T18:48:51.068Z,7.53
2023-05-03T18:51:18.756Z,6.63
2023-05-03T18:53:46.738Z,7.22
2023-05-03T18:56:14.929Z,7.15
2023-05-03T18:58:42.669Z,7.60
2023-05-03T19:01:12.306Z,7.47
2023-05-03T19:03:40.315Z,7.93
2023-05-03T19:06:08.752Z,6.80
2023-05-03T19:08:37.040Z,8.35
2023-05-03T19:11:13.266Z,7.93
2023-05-03T19:13:46.013Z,8.23
2023-05-03T19:16:19.296Z,8.85
2023-05-03T19:18:48.165Z,8.73
2023-05-03T19:21:20.188Z,8.98
2023-05-03T19:23:48.491Z,9.32
2023-05-03T19:26:16.512Z,9.40
2023-05-03T19:28:44.291Z,9.43
2023-05-03T19:31:11.818Z,9.80
2023-05-03T19:33:40.327Z,10.35
2023-05-03T19:36:12.466Z,10.00
2023-05-03T19:38:40.710Z,9.90
2023-05-03T19:41:12.249Z,10.52
2023-05-03T19:43:41.293Z,10.85
2023-05-03T19:46:09.202Z,10.25
2023-05-03T19:48:37.130Z,10.57
2023-05-03T19:51:08.071Z,10.02
2023-05-03T19:53:37.866Z,10.27
2023-05-03T19:56:07.126Z,9.75
2023-05-03T19:58:34.612Z,9.77
2023-05-03T20:01:04.049Z,9.68
2023-05-03T20:03:31.633Z,10.15
2023-05-03T20:05:59.447Z,9.32
2023-05-03T20:08:27.582Z,10.00
2023-05-03T20:10:55.716Z,10.77
2023-05-03T20:13:23.030Z,9.73
2023-05-03T20:15:50.683Z,10.48
2023-05-03T20:18:18.361Z,10.52
2023-05-03T20:20:45.858Z,11.00
2023-05-03T20:23:14.954Z,10.90
2023-05-03T20:25:42.241Z,11.10
2023-05-03T20:28:09.816Z,11.25
2023-05-03T20:30:37.447Z,12.23
2023-05-03T20:33:04.797Z,11.85
2023-05-03T20:35:32.169Z,12.50
2023-05-03T20:37:59.336Z,13.13
2023-05-03T20:40:26.538Z,12.35
2023-05-03T20:42:53.713Z,12.07
2023-05-03T20:45:20.940Z,13.38
2023-05-03T20:47:48.135Z,11.80
2023-05-03T20:50:15.342Z,12.93
2023-05-03T20:52:42.449Z,12.85
2023-05-03T20:55:09.913Z,13.00
2023-05-03T20:57:43.645Z,12.80
2023-05-03T21:00:12.427Z,11.63
2023-05-03T21:02:39.709Z,12.57
2023-05-03T21:05:07.422Z,12.75
2023-05-03T21:07:34.541Z,13.55
2023-05-03T21:10:01.742Z,13.30
2023-05-03T21:12:29.483Z,13.00
2023-05-03T21:14:56.593Z,13.45
2023-05-03T21:17:23.742Z,12.95
2023-05-03T21:19:51.216Z,13.27
2023-05-03T21:22:18.295Z,14.25
2023-05-03T21:24:45.658Z,14.68
2023-05-03T21:27:12.915Z,13.80
2023-05-03T21:29:40.002Z,13.57
2023-05-03T21:32:07.555Z,13.80
2023-05-03T21:34:34.784Z,14.15
2023-05-03T21:37:02.037Z,13.35
2023-05-03T21:39:29.551Z,14.00
2023-05-03T21:41:56.696Z,12.82
2023-05-03T21:44:23.843Z,13.45
2023-05-03T21:46:51.364Z,14.05
2023-05-03T21:49:18.573Z,13.45
2023-05-03T21:51:45.679Z,13.95
2023-05-03T21:54:12.965Z,14.20
2023-05-03T21:56:39.989Z,13.63
2023-05-03T21:59:07.188Z,13.68
2023-05-03T22:01:34.282Z,13.05
2023-05-03T22:04:01.767Z,13.45
2023-05-03T22:06:28.901Z,13.40
2023-05-03T22:08:56.022Z,14.70
2023-05-03T22:11:23.505Z,14.70
2023-05-03T22:14:03.667Z,14.80
2023-05-03T22:16:34.426Z,15.05
2023-05-03T22:19:01.653Z,13.45
2023-05-03T22:21:28.811Z,13.77
2023-05-03T22:23:55.938Z,13.82
2023-05-03T22:26:24.307Z,13.27
2023-05-03T22:28:52.043Z,14.25
2023-05-03T22:31:19.141Z,13.93
2023-05-03T22:33:47.270Z,13.35
2023-05-03T22:36:14.731Z,14.02
2023-05-03T22:38:42.997Z,14.00
2023-05-03T22:41:10.585Z,13.02
2023-05-03T22:43:37.761Z,12.98
2023-05-03T22:46:06.312Z,12.85
2023-05-03T22:48:34.139Z,13.80
2023-05-03T22:51:01.410Z,12.80
2023-05-03T22:53:28.659Z,12.30
2023-05-03T22:56:06.319Z,12.73
2023-05-03T22:58:34.849Z,12.05
2023-05-03T23:01:01.954Z,12.25
2023-05-03T23:03:29.211Z,12.68
2023-05-03T23:05:56.406Z,12.70
2023-05-03T23:08:23.571Z,11.65
2023-05-03T23:10:51.084Z,12.13
2023-05-03T23:13:18.296Z,12.60
2023-05-03T23:15:45.539Z,11.73
2023-05-03T23:18:12.652Z,12.23
2023-05-03T23:20:39.825Z,12.20
2023-05-03T23:23:06.920Z,11.85
2023-05-03T23:25:34.233Z,11.48
2023-05-03T23:28:01.384Z,11.15
2023-05-03T23:30:28.863Z,11.73
2023-05-03T23:32:56.574Z,11.55
2023-05-03T23:35:24.151Z,10.82
2023-05-03T23:37:51.555Z,11.40
2023-05-03T23:40:18.702Z,11.38
2023-05-03T23:42:46.734Z,10.50
2023-05-03T23:45:13.864Z,11.00
2023-05-03T23:47:40.951Z,10.27
2023-05-03T23:50:08.799Z,10.45
2023-05-03T23:52:36.223Z,10.43
2023-05-03T23:55:05.060Z,9.63
2023-05-03T23:57:32.378Z,10.93
2023-05-03T23:59:59.549Z,10.88
